createdAt,value
2022-11-24T00:00:17.670Z,4.69
2022-11-24T00:03:05.335Z,4.97
2022-11-24T00:05:52.988Z,8.91
2022-11-24T00:08:40.578Z,31.51
2022-11-24T00:11:28.123Z,6.58
2022-11-24T00:14:15.699Z,5.63
2022-11-24T00:17:03.429Z,18.01
2022-11-24T00:19:51.087Z,10.26
2022-11-24T00:22:38.682Z,8.13
2022-11-24T00:25:26.225Z,6.46
2022-11-24T00:28:13.806Z,15.14
2022-11-24T00:31:01.378Z,6.23
2022-11-24T00:33:48.998Z,5.27
2022-11-24T00:36:36.579Z,4.26
2022-11-24T00:39:24.157Z,3.96
2022-11-24T00:42:11.711Z,3.86
2022-11-24T00:44:59.277Z,4.37
2022-11-24T00:47:46.871Z,4.40
2022-11-24T00:50:34.461Z,4.51
2022-11-24T00:53:22.015Z,4.35
2022-11-24T00:56:09.580Z,5.04
2022-11-24T00:58:57.126Z,101.03
2022-11-24T01:01:44.815Z,107.19
2022-11-24T01:04:32.721Z,9.09
2022-11-24T01:07:20.475Z,4.78
2022-11-24T01:10:08.026Z,4.10
2022-11-24T01:12:55.601Z,3.73
2022-11-24T01:15:43.186Z,3.88
2022-11-24T01:18:30.774Z,3.52
2022-11-24T01:21:18.338Z,3.72
2022-11-24T01:24:05.899Z,3.94
2022-11-24T01:26:53.465Z,4.13
2022-11-24T01:29:41.237Z,4.30
2022-11-24T01:32:28.788Z,4.61
2022-11-24T01:35:16.461Z,4.48
2022-11-24T01:38:04.014Z,4.41
2022-11-24T01:40:51.582Z,4.47
2022-11-24T01:43:39.149Z,4.38
2022-11-24T01:46:26.757Z,4.63
2022-11-24T01:49:14.356Z,4.57
2022-11-24T01:52:01.918Z,4.62
2022-11-24T01:54:49.455Z,4.74
2022-11-24T01:57:37.018Z,4.66
2022-11-24T02:00:24.574Z,4.19
2022-11-24T02:03:12.160Z,4.01
2022-11-24T02:05:59.690Z,3.67
2022-11-24T02:08:47.253Z,3.83
2022-11-24T02:11:34.818Z,3.97
2022-11-24T02:14:22.374Z,4.13
2022-11-24T02:17:09.914Z,4.14
2022-11-24T02:19:57.498Z,3.95
2022-11-24T02:22:45.065Z,4.02
2022-11-24T02:25:32.628Z,3.68
2022-11-24T02:28:20.178Z,3.96
2022-11-24T02:31:07.769Z,3.66
2022-11-24T02:33:55.398Z,3.93
2022-11-24T02:36:42.984Z,4.17
2022-11-24T02:39:30.568Z,4.17
2022-11-24T02:42:18.126Z,4.08
2022-11-24T02:45:05.709Z,4.89
2022-11-24T02:47:53.254Z,4.90
2022-11-24T02:50:40.814Z,5.58
2022-11-24T02:53:28.371Z,5.12
2022-11-24T02:56:15.914Z,5.36
2022-11-24T02:59:03.509Z,4.97
2022-11-24T03:01:51.193Z,5.33
2022-11-24T03:04:38.793Z,5.36
2022-11-24T03:07:26.402Z,5.61
2022-11-24T03:10:14.011Z,19.17
2022-11-24T03:13:01.584Z,77.08
2022-11-24T03:15:49.278Z,135.65
2022-11-24T03:18:36.898Z,124.34
2022-11-24T03:21:24.502Z,119.82
2022-11-24T03:24:12.086Z,122.74
2022-11-24T03:26:59.662Z,148.41
2022-11-24T03:29:47.209Z,149.65
2022-11-24T03:32:34.818Z,134.79
2022-11-24T03:35:24.399Z,95.49
2022-11-24T03:38:11.984Z,59.40
2022-11-24T03:40:59.546Z,14.25
2022-11-24T03:43:47.229Z,4.61
2022-11-24T03:46:36.949Z,3.28
2022-11-24T03:49:24.608Z,3.52
2022-11-24T03:52:12.161Z,3.07
2022-11-24T03:54:59.734Z,3.22
2022-11-24T03:57:47.307Z,3.31
2022-11-24T04:00:34.879Z,3.60
2022-11-24T04:03:22.446Z,4.67
2022-11-24T04:06:10.014Z,5.33
2022-11-24T04:08:57.572Z,5.60
2022-11-24T04:11:45.156Z,5.61
2022-11-24T04:14:52.712Z,8.89
2022-11-24T04:17:40.393Z,9.63
2022-11-24T04:20:28.027Z,7.95
2022-11-24T04:23:15.612Z,9.22
2022-11-24T04:26:03.174Z,23.37
2022-11-24T04:28:50.775Z,40.68
2022-11-24T04:31:38.384Z,61.48
2022-11-24T04:34:26.024Z,109.36
2022-11-24T04:37:13.601Z,118.61
2022-11-24T04:40:01.216Z,131.52
2022-11-24T04:42:48.834Z,121.20
2022-11-24T04:45:36.419Z,88.04
2022-11-24T04:48:23.989Z,79.64
2022-11-24T04:51:11.686Z,96.24
2022-11-24T04:53:59.263Z,123.05
2022-11-24T04:56:46.840Z,81.94
2022-11-24T04:59:34.411Z,23.99
2022-11-24T05:02:21.993Z,48.72
2022-11-24T05:05:09.582Z,61.69
2022-11-24T05:07:57.206Z,28.25
2022-11-24T05:10:44.776Z,6.84
2022-11-24T05:13:32.344Z,5.36
2022-11-24T05:16:19.934Z,5.39
2022-11-24T05:19:07.749Z,5.32
2022-11-24T05:21:55.284Z,5.21
2022-11-24T05:24:43.081Z,4.82
2022-11-24T05:27:30.649Z,5.31
2022-11-24T05:30:18.188Z,5.17
2022-11-24T05:33:05.730Z,5.27
2022-11-24T05:35:53.296Z,5.41
2022-11-24T05:38:40.865Z,5.48
2022-11-24T05:41:28.414Z,5.45
2022-11-24T05:44:15.976Z,9.97
2022-11-24T05:47:03.584Z,8.48
2022-11-24T05:49:51.170Z,6.14
2022-11-24T05:52:38.729Z,6.05
2022-11-24T05:55:26.262Z,5.50
2022-11-24T05:58:13.846Z,6.38
2022-11-24T06:01:01.408Z,6.29
2022-11-24T06:03:48.957Z,11.15
2022-11-24T06:06:36.524Z,6.82
2022-11-24T06:09:24.100Z,5.12
2022-11-24T06:12:11.674Z,6.96
2022-11-24T06:14:59.298Z,8.06
2022-11-24T06:17:46.874Z,16.68
2022-11-24T06:20:34.426Z,7.18
2022-11-24T06:23:21.973Z,5.88
2022-11-24T06:26:09.542Z,5.22
2022-11-24T06:28:57.096Z,4.97
2022-11-24T06:31:44.757Z,5.08
2022-11-24T06:34:32.757Z,5.44
2022-11-24T06:37:20.582Z,6.74
2022-11-24T06:40:08.120Z,7.15
2022-11-24T06:42:55.991Z,20.00
2022-11-24T06:45:43.690Z,8.06
2022-11-24T06:48:31.253Z,7.03
2022-11-24T06:51:18.828Z,8.92
2022-11-24T06:54:06.406Z,9.82
2022-11-24T06:56:53.974Z,14.14
2022-11-24T06:59:41.549Z,13.84
2022-11-24T07:02:29.106Z,28.02
2022-11-24T07:05:16.699Z,7.31
2022-11-24T07:08:04.318Z,5.75
2022-11-24T07:10:51.934Z,5.04
2022-11-24T07:13:39.494Z,4.59
2022-11-24T07:16:27.192Z,4.32
2022-11-24T07:19:15.602Z,4.47
2022-11-24T07:22:05.553Z,4.11
2022-11-24T07:24:53.127Z,3.32
2022-11-24T07:27:40.690Z,3.37
2022-11-24T07:30:28.329Z,3.30
2022-11-24T07:33:16.007Z,3.10
2022-11-24T07:36:03.593Z,2.95
2022-11-24T07:38:51.167Z,3.27
2022-11-24T07:41:38.727Z,3.04
2022-11-24T07:44:26.316Z,3.38
2022-11-24T07:47:13.863Z,3.18
2022-11-24T07:50:01.419Z,2.82
2022-11-24T07:52:48.986Z,2.86
2022-11-24T07:55:36.562Z,3.11
2022-11-24T07:58:27.678Z,3.43
2022-11-24T08:01:19.555Z,3.52
2022-11-24T08:04:07.229Z,3.74
2022-11-24T08:06:54.834Z,3.41
2022-11-24T08:09:42.391Z,3.46
2022-11-24T08:12:29.970Z,3.36
2022-11-24T08:15:17.512Z,3.18
2022-11-24T08:18:05.107Z,3.72
2022-11-24T08:20:52.684Z,3.54
2022-11-24T08:23:40.272Z,3.58
2022-11-24T08:26:27.834Z,3.57
2022-11-24T08:29:15.403Z,3.72
2022-11-24T08:32:03.026Z,3.56
2022-11-24T08:34:52.075Z,3.35
2022-11-24T08:37:39.690Z,3.99
2022-11-24T08:40:27.267Z,3.52
2022-11-24T08:43:14.838Z,3.49
2022-11-24T08:46:02.465Z,3.60
2022-11-24T08:48:50.181Z,3.30
2022-11-24T08:51:37.821Z,3.39
2022-11-24T08:54:25.366Z,3.28
2022-11-24T08:57:16.025Z,3.61
2022-11-24T09:00:07.836Z,3.37
2022-11-24T09:02:55.494Z,3.33
2022-11-24T09:05:51.817Z,3.39
2022-11-24T09:08:40.177Z,3.42
2022-11-24T09:11:27.762Z,3.10
2022-11-24T09:14:15.349Z,3.23
2022-11-24T09:17:03.014Z,3.33
2022-11-24T09:19:50.671Z,3.28
2022-11-24T09:22:38.221Z,3.71
2022-11-24T09:25:25.812Z,3.82
2022-11-24T09:28:13.367Z,3.82
2022-11-24T09:31:01.013Z,3.64
2022-11-24T09:33:48.607Z,3.53
2022-11-24T09:36:36.202Z,3.85
2022-11-24T09:39:23.792Z,3.63
2022-11-24T09:42:11.391Z,3.66
2022-11-24T09:44:58.943Z,3.83
2022-11-24T09:47:46.526Z,3.50
2022-11-24T09:50:34.076Z,3.97
2022-11-24T09:53:21.655Z,3.80
2022-11-24T09:56:09.248Z,3.57
2022-11-24T09:58:56.847Z,3.40
2022-11-24T10:01:44.436Z,3.38
2022-11-24T10:04:32.082Z,3.42
2022-11-24T10:07:21.370Z,3.24
2022-11-24T10:10:08.994Z,3.36
2022-11-24T10:12:56.562Z,3.59
2022-11-24T10:15:44.180Z,3.61
2022-11-24T10:18:31.773Z,3.48
2022-11-24T10:21:19.379Z,3.42
2022-11-24T10:24:06.954Z,3.00
2022-11-24T10:26:54.560Z,2.91
2022-11-24T10:29:42.133Z,2.96
2022-11-24T10:32:29.713Z,3.07
2022-11-24T10:35:17.271Z,2.98
2022-11-24T10:38:04.838Z,2.74
2022-11-24T10:40:57.436Z,2.73
2022-11-24T10:43:45.223Z,2.63
2022-11-24T10:46:37.939Z,2.54
2022-11-24T10:49:26.958Z,2.20
2022-11-24T10:52:14.527Z,2.53
2022-11-24T10:55:02.087Z,2.62
2022-11-24T10:57:49.687Z,2.66
2022-11-24T11:00:37.259Z,2.53
2022-11-24T11:03:24.833Z,2.56
2022-11-24T11:06:12.398Z,2.88
2022-11-24T11:09:00.025Z,3.06
2022-11-24T11:11:47.593Z,3.16
2022-11-24T11:14:35.163Z,3.02
2022-11-24T11:17:22.747Z,3.01
2022-11-24T11:20:10.336Z,2.85
2022-11-24T11:22:57.914Z,2.79
2022-11-24T11:25:45.491Z,2.94
2022-11-24T11:28:33.041Z,2.83
2022-11-24T11:31:22.175Z,2.56
2022-11-24T11:34:16.669Z,2.53
2022-11-24T11:37:08.371Z,2.19
2022-11-24T11:39:55.982Z,2.45
2022-11-24T11:43:01.871Z,2.48
2022-11-24T11:45:50.558Z,2.35
2022-11-24T11:48:43.066Z,2.58
2022-11-24T11:51:31.446Z,2.81
2022-11-24T11:54:19.234Z,2.60
2022-11-24T11:57:08.819Z,2.65
2022-11-24T11:59:56.393Z,2.59
2022-11-24T12:02:47.286Z,2.32
2022-11-24T12:05:39.186Z,2.37
2022-11-24T12:08:26.786Z,2.90
2022-11-24T12:11:14.326Z,2.62
2022-11-24T12:14:01.916Z,2.50
2022-11-24T12:16:49.459Z,2.73
2022-11-24T12:19:37.189Z,2.59
2022-11-24T12:22:24.940Z,2.72
2022-11-24T12:25:12.538Z,2.54
2022-11-24T12:28:00.087Z,2.44
2022-11-24T12:30:47.675Z,2.69
2022-11-24T12:33:35.244Z,2.70
2022-11-24T12:36:22.814Z,2.49
2022-11-24T12:39:10.390Z,2.54
2022-11-24T12:41:58.089Z,2.39
2022-11-24T12:44:45.635Z,2.80
2022-11-24T12:47:33.303Z,2.75
2022-11-24T12:50:20.889Z,2.88
2022-11-24T12:53:08.468Z,2.74
2022-11-24T12:55:56.029Z,2.71
2022-11-24T12:58:43.631Z,2.67
2022-11-24T13:01:31.275Z,2.36
2022-11-24T13:04:19.009Z,2.73
2022-11-24T13:07:06.608Z,2.90
2022-11-24T13:09:54.152Z,3.08
2022-11-24T13:12:41.718Z,2.79
2022-11-24T13:15:45.527Z,2.79
2022-11-24T13:18:33.798Z,3.26
2022-11-24T13:21:21.389Z,2.76
2022-11-24T13:24:08.977Z,2.82
2022-11-24T13:26:56.522Z,2.77
2022-11-24T13:29:44.124Z,3.03
2022-11-24T13:32:31.665Z,2.74
2022-11-24T13:35:19.224Z,2.86
2022-11-24T13:38:06.775Z,2.99
2022-11-24T13:41:13.360Z,2.81
2022-11-24T13:44:01.863Z,2.70
2022-11-24T13:46:49.494Z,2.62
2022-11-24T13:49:37.126Z,2.77
2022-11-24T13:52:24.718Z,2.68
2022-11-24T13:55:12.303Z,2.52
2022-11-24T13:57:59.883Z,2.91
2022-11-24T14:00:47.474Z,2.81
2022-11-24T14:03:35.133Z,3.15
2022-11-24T14:06:22.784Z,2.89
2022-11-24T14:09:10.369Z,2.66
2022-11-24T14:11:57.957Z,2.79
2022-11-24T14:14:45.538Z,2.73
2022-11-24T14:17:33.096Z,2.58
2022-11-24T14:20:20.659Z,2.52
2022-11-24T14:23:08.191Z,2.84
2022-11-24T14:25:55.791Z,2.52
2022-11-24T14:28:43.424Z,2.84
2022-11-24T14:31:31.180Z,2.64
2022-11-24T14:34:20.722Z,2.36
2022-11-24T14:37:08.290Z,2.86
2022-11-24T14:39:56.862Z,2.61
2022-11-24T14:42:44.434Z,2.47
2022-11-24T14:45:31.982Z,2.51
2022-11-24T14:48:19.568Z,2.11
2022-11-24T14:51:07.135Z,2.55
2022-11-24T14:53:54.707Z,2.48
2022-11-24T14:56:42.276Z,2.16
2022-11-24T14:59:29.849Z,2.17
2022-11-24T15:02:17.519Z,1.76
2022-11-24T15:05:05.506Z,2.57
2022-11-24T15:07:53.457Z,2.76
2022-11-24T15:10:41.075Z,2.64
2022-11-24T15:13:28.642Z,2.61
2022-11-24T15:16:16.298Z,2.29
2022-11-24T15:19:03.898Z,1.98
2022-11-24T15:21:51.473Z,2.00
2022-11-24T15:24:39.042Z,2.43
2022-11-24T15:27:26.603Z,2.61
2022-11-24T15:30:14.187Z,2.56
2022-11-24T15:33:01.748Z,2.79
2022-11-24T15:35:49.323Z,2.55
2022-11-24T15:38:36.892Z,2.48
2022-11-24T15:41:24.448Z,2.25
2022-11-24T15:44:11.995Z,2.26
2022-11-24T15:46:59.610Z,2.07
2022-11-24T15:49:47.246Z,2.83
2022-11-24T15:52:34.838Z,3.06
2022-11-24T15:55:22.410Z,2.77
2022-11-24T15:58:09.972Z,2.68
2022-11-24T16:00:57.621Z,2.49
2022-11-24T16:03:47.408Z,2.25
2022-11-24T16:06:35.990Z,2.55
2022-11-24T16:09:23.526Z,2.02
2022-11-24T16:12:11.103Z,2.15
2022-11-24T16:14:58.750Z,1.99
2022-11-24T16:17:46.351Z,2.03
2022-11-24T16:20:33.909Z,2.09
2022-11-24T16:23:21.470Z,2.10
2022-11-24T16:26:09.014Z,2.18
2022-11-24T16:28:56.598Z,2.25
2022-11-24T16:31:44.269Z,1.73
2022-11-24T16:34:32.078Z,1.91
2022-11-24T16:37:19.744Z,1.99
2022-11-24T16:40:07.314Z,1.96
2022-11-24T16:42:54.859Z,2.06
2022-11-24T16:45:45.484Z,2.23
2022-11-24T16:48:33.271Z,2.26
2022-11-24T16:51:20.839Z,1.99
2022-11-24T16:54:08.391Z,2.07
2022-11-24T16:56:55.983Z,2.48
2022-11-24T16:59:43.563Z,2.41
2022-11-24T17:02:31.249Z,2.17
2022-11-24T17:05:18.851Z,2.77
2022-11-24T17:08:06.436Z,2.71
2022-11-24T17:10:53.979Z,2.27
2022-11-24T17:13:41.585Z,2.83
2022-11-24T17:16:29.181Z,2.23
2022-11-24T17:19:16.828Z,2.35
2022-11-24T17:22:04.393Z,2.20
2022-11-24T17:24:51.958Z,2.10
2022-11-24T17:27:39.511Z,2.01
2022-11-24T17:30:27.196Z,2.10
2022-11-24T17:33:14.734Z,2.32
2022-11-24T17:36:02.314Z,2.51
2022-11-24T17:38:49.872Z,3.00
2022-11-24T17:41:37.482Z,2.81
2022-11-24T17:44:25.074Z,2.43
2022-11-24T17:47:12.645Z,2.91
2022-11-24T17:50:00.187Z,2.72
2022-11-24T17:52:47.753Z,3.12
2022-11-24T17:55:35.301Z,2.51
2022-11-24T17:58:22.870Z,2.37
2022-11-24T18:01:10.550Z,3.09
2022-11-24T18:03:58.229Z,2.44
2022-11-24T18:06:45.818Z,2.65
2022-11-24T18:09:33.360Z,2.79
2022-11-24T18:12:20.955Z,2.33
2022-11-24T18:15:08.514Z,2.27
2022-11-24T18:17:56.073Z,2.48
2022-11-24T18:20:43.636Z,2.51
2022-11-24T18:23:31.235Z,2.20
2022-11-24T18:26:18.812Z,2.08
2022-11-24T18:29:06.390Z,2.05
2022-11-24T18:31:56.043Z,2.11
2022-11-24T18:34:43.695Z,2.57
2022-11-24T18:37:31.243Z,2.47
2022-11-24T18:40:18.809Z,2.42
2022-11-24T18:43:06.363Z,2.34
2022-11-24T18:45:53.977Z,2.51
2022-11-24T18:48:41.652Z,3.00
2022-11-24T18:51:29.281Z,2.61
2022-11-24T18:54:16.865Z,2.01
2022-11-24T18:57:04.425Z,2.33
2022-11-24T18:59:52.007Z,2.03
2022-11-24T19:02:39.642Z,2.00
2022-11-24T19:05:27.313Z,1.97
2022-11-24T19:08:14.927Z,1.87
2022-11-24T19:11:02.483Z,1.77
2022-11-24T19:13:50.065Z,1.99
2022-11-24T19:16:37.655Z,1.98
2022-11-24T19:19:25.330Z,2.01
2022-11-24T19:22:12.917Z,2.09
2022-11-24T19:25:00.504Z,2.06
2022-11-24T19:27:48.071Z,1.93
2022-11-24T19:30:35.653Z,2.08
2022-11-24T19:33:23.229Z,2.01
2022-11-24T19:36:11.876Z,2.08
2022-11-24T19:38:59.437Z,1.96
2022-11-24T19:41:47.028Z,2.16
2022-11-24T19:44:34.759Z,2.26
2022-11-24T19:47:24.502Z,2.32
2022-11-24T19:50:12.047Z,2.41
2022-11-24T19:52:59.650Z,2.58
2022-11-24T19:55:47.225Z,2.40
2022-11-24T19:58:34.805Z,2.77
2022-11-24T20:01:22.430Z,2.66
2022-11-24T20:04:10.106Z,2.69
2022-11-24T20:06:57.676Z,3.06
2022-11-24T20:09:45.248Z,2.69
2022-11-24T20:12:32.811Z,2.77
2022-11-24T20:15:20.380Z,2.59
2022-11-24T20:18:07.973Z,2.44
2022-11-24T20:20:55.601Z,2.53
2022-11-24T20:23:43.160Z,2.26
2022-11-24T20:26:30.744Z,2.29
2022-11-24T20:29:18.298Z,2.32
2022-11-24T20:32:05.944Z,1.84
2022-11-24T20:34:53.539Z,1.89
2022-11-24T20:37:41.109Z,1.95
2022-11-24T20:40:28.673Z,1.97
2022-11-24T20:43:16.246Z,1.86
2022-11-24T20:46:03.919Z,1.89
2022-11-24T20:48:51.587Z,1.78
2022-11-24T20:51:39.178Z,1.93
2022-11-24T20:54:26.769Z,2.07
2022-11-24T20:57:14.382Z,2.21
2022-11-24T21:00:02.351Z,1.97
2022-11-24T21:02:50.034Z,1.99
2022-11-24T21:05:37.637Z,2.00
2022-11-24T21:08:25.222Z,2.09
2022-11-24T21:11:12.802Z,2.03
2022-11-24T21:14:00.369Z,2.17
2022-11-24T21:16:47.982Z,2.01
2022-11-24T21:19:35.640Z,2.05
2022-11-24T21:22:23.201Z,2.03
2022-11-24T21:25:10.796Z,1.96
2022-11-24T21:27:58.375Z,1.96
2022-11-24T21:30:45.939Z,1.69
2022-11-24T21:33:33.510Z,1.53
2022-11-24T21:36:21.066Z,1.60
2022-11-24T21:39:08.655Z,2.01
2022-11-24T21:41:56.273Z,2.54
2022-11-24T21:44:43.829Z,3.42
2022-11-24T21:47:31.445Z,4.74
2022-11-24T21:50:19.026Z,3.77
2022-11-24T21:53:06.591Z,1.93
2022-11-24T21:55:54.214Z,1.79
2022-11-24T21:58:41.793Z,1.83
2022-11-24T22:01:29.397Z,2.12
2022-11-24T22:04:17.090Z,2.68
2022-11-24T22:07:04.630Z,3.19
2022-11-24T22:09:52.212Z,3.26
2022-11-24T22:12:39.794Z,2.84
2022-11-24T22:15:27.424Z,2.33
2022-11-24T22:18:14.993Z,2.20
2022-11-24T22:21:02.570Z,2.65
2022-11-24T22:23:50.134Z,2.18
2022-11-24T22:26:37.716Z,2.51
2022-11-24T22:29:25.292Z,2.45
2022-11-24T22:32:12.834Z,2.59
2022-11-24T22:35:00.436Z,2.92
2022-11-24T22:37:47.993Z,2.44
2022-11-24T22:40:35.570Z,2.52
2022-11-24T22:43:23.333Z,2.21
2022-11-24T22:46:11.006Z,2.61
2022-11-24T22:48:58.755Z,2.68
2022-11-24T22:51:46.442Z,3.09
2022-11-24T22:54:34.304Z,3.20
2022-11-24T22:57:22.085Z,3.30
2022-11-24T23:00:09.631Z,3.13
2022-11-24T23:02:57.239Z,3.12
2022-11-24T23:05:44.901Z,2.51
2022-11-24T23:08:32.471Z,2.57
2022-11-24T23:11:20.020Z,2.91
2022-11-24T23:14:07.594Z,2.88
2022-11-24T23:16:55.207Z,3.17
2022-11-24T23:19:42.810Z,2.84
2022-11-24T23:22:30.384Z,2.93
2022-11-24T23:25:17.972Z,2.54
2022-11-24T23:28:05.545Z,2.50
2022-11-24T23:30:53.141Z,2.29
2022-11-24T23:33:40.728Z,2.43
2022-11-24T23:36:28.319Z,2.46
2022-11-24T23:39:15.865Z,2.51
2022-11-24T23:42:03.466Z,2.72
2022-11-24T23:44:51.049Z,2.69
2022-11-24T23:47:38.641Z,2.67
2022-11-24T23:50:26.202Z,2.56
2022-11-24T23:53:13.763Z,3.38
2022-11-24T23:56:01.357Z,5.30
2022-11-24T23:58:48.944Z,4.16
